Time;durP1;ratioP1;P1;durP2;ratioP2;P2;SDS_P1;SDS_P2;PMS_P1;PMS_P2;Temp;Humidity;BMP_temperature;BMP_pressure;BME280_temperature;BME280_humidity;BME280_pressure;Samples;Min_cycle;Max_cycle;Signal;HPM_P1;HPM_P2
2022/03/09 00:00:06;;;;;;;8.18;7.00;;;;;;;3.97;61.77;102198.31;5040206;28;20025;-79
2022/03/09 00:02:31;;;;;;;9.80;7.18;;;;;;;3.97;62.12;102193.13;5054232;28;20317;-79
2022/03/09 00:04:56;;;;;;;9.50;7.20;;;;;;;3.96;62.53;102191.38;5051512;28;20041;-79
2022/03/09 00:07:22;;;;;;;11.57;7.20;;;;;;;3.94;61.80;102193.94;5037041;28;20036;-79
2022/03/09 00:09:47;;;;;;;8.30;6.88;;;;;;;3.93;62.23;102194.81;5056086;28;20243;-79
2022/03/09 00:12:13;;;;;;;8.13;6.82;;;;;;;3.93;62.37;102201.69;5052935;28;20075;-78
2022/03/09 00:14:38;;;;;;;9.93;7.78;;;;;;;3.91;62.34;102198.22;5054256;28;20311;-78
2022/03/09 00:17:04;;;;;;;10.10;7.47;;;;;;;3.90;62.44;102207.75;5053927;28;20052;-78
2022/03/09 00:19:29;;;;;;;10.27;8.13;;;;;;;3.89;62.21;102210.31;5054292;28;20469;-78
2022/03/09 00:21:55;;;;;;;8.95;7.10;;;;;;;3.88;62.33;102206.00;5036883;28;20340;-78
2022/03/09 00:24:20;;;;;;;9.73;7.32;;;;;;;3.86;62.25;102211.16;5037008;28;20039;-79
2022/03/09 00:26:46;;;;;;;8.35;7.03;;;;;;;3.84;62.43;102212.88;5034990;28;20040;-78
2022/03/09 00:29:12;;;;;;;12.25;7.55;;;;;;;3.81;62.84;102211.13;5054018;28;20041;-78
2022/03/09 00:31:37;;;;;;;9.55;7.28;;;;;;;3.81;62.98;102211.13;5057334;28;20107;-78
2022/03/09 00:34:02;;;;;;;11.30;7.78;;;;;;;3.80;63.06;102213.69;5038000;28;20090;-78
2022/03/09 00:36:28;;;;;;;10.00;7.60;;;;;;;3.80;62.91;102211.97;5046504;28;20407;-78
2022/03/09 00:38:53;;;;;;;8.20;7.05;;;;;;;3.79;63.24;102214.56;5066077;28;20040;-79
2022/03/09 00:41:19;;;;;;;8.52;7.00;;;;;;;3.78;63.14;102220.56;5049259;28;20055;-79
2022/03/09 00:43:44;;;;;;;7.30;6.47;;;;;;;3.76;62.80;102222.28;5042766;28;20037;-79
2022/03/09 00:46:10;;;;;;;10.05;7.30;;;;;;;3.74;62.77;102219.69;5047227;28;20295;-79
2022/03/09 00:48:35;;;;;;;8.73;7.18;;;;;;;3.73;63.41;102228.31;5057187;28;20045;-79
2022/03/09 00:51:01;;;;;;;8.95;7.22;;;;;;;3.73;63.51;102232.63;5026247;28;20037;-79
2022/03/09 00:53:26;;;;;;;7.85;6.65;;;;;;;3.72;63.47;102236.09;5053882;28;20375;-79
2022/03/09 00:55:52;;;;;;;9.80;7.20;;;;;;;3.71;63.78;102223.97;5067565;28;20058;-79
2022/03/09 00:58:17;;;;;;;8.60;6.97;;;;;;;3.71;63.64;102232.63;5060431;28;20053;-78
2022/03/09 01:00:43;;;;;;;7.65;6.38;;;;;;;3.69;63.53;102228.25;5047991;28;20352;-78
2022/03/09 01:03:08;;;;;;;9.25;7.40;;;;;;;3.70;63.90;102222.25;5037150;28;20048;-78
2022/03/09 01:05:34;;;;;;;9.13;7.15;;;;;;;3.67;64.27;102227.38;5056370;28;20209;-79
2022/03/09 01:07:59;;;;;;;9.45;6.63;;;;;;;3.67;63.52;102229.97;5037092;28;20344;-79
2022/03/09 01:10:25;;;;;;;10.07;7.38;;;;;;;3.64;63.93;102220.47;5064274;28;20389;-79
2022/03/09 01:12:50;;;;;;;9.00;7.47;;;;;;;3.62;64.27;102217.84;5043081;28;20285;-79
2022/03/09 01:15:16;;;;;;;10.43;7.70;;;;;;;3.62;64.69;102219.56;5047616;28;20051;-79
2022/03/09 01:17:41;;;;;;;9.30;7.05;;;;;;;3.61;64.33;102226.47;5060326;28;20071;-79
2022/03/09 01:20:07;;;;;;;8.75;7.43;;;;;;;3.62;64.92;102232.50;5047702;28;20037;-79
2022/03/09 01:22:32;;;;;;;7.90;6.63;;;;;;;3.62;65.04;102230.81;5033044;28;20055;-79
2022/03/09 01:24:58;;;;;;;10.18;7.55;;;;;;;3.61;64.86;102226.47;5020420;28;20045;-79
2022/03/09 01:27:23;;;;;;;10.13;7.28;;;;;;;3.62;64.88;102222.13;5050814;28;20065;-79
2022/03/09 01:29:49;;;;;;;7.43;6.40;;;;;;;3.61;65.13;102229.06;5061363;28;20043;-79
2022/03/09 01:32:14;;;;;;;8.85;6.65;;;;;;;3.62;64.81;102222.13;5037115;28;20040;-78
2022/03/09 01:34:40;;;;;;;8.38;6.75;;;;;;;3.61;64.54;102231.66;5059205;28;20107;-79
2022/03/09 01:37:05;;;;;;;12.35;7.38;;;;;;;3.59;64.70;102228.19;5061134;28;20056;-79
2022/03/09 01:39:31;;;;;;;10.55;7.78;;;;;;;3.59;65.01;102228.19;5059477;28;20037;-78
2022/03/09 01:41:56;;;;;;;8.57;6.93;;;;;;;3.59;65.62;102227.31;5055753;28;20111;-78
2022/03/09 01:44:23;;;;;;;11.90;8.50;;;;;;;3.57;65.87;102222.13;5037621;28;20064;-78
2022/03/09 01:46:52;;;;;;;8.57;6.82;;;;;;;3.58;65.72;102220.38;5065985;28;20386;-78
2022/03/09 01:49:19;;;;;;;8.60;7.28;;;;;;;3.54;64.87;102209.13;5074692;28;20048;-79
2022/03/09 01:51:47;;;;;;;8.02;7.05;;;;;;;3.53;64.78;102217.75;5074784;28;20051;-78
2022/03/09 01:54:13;;;;;;;11.10;8.27;;;;;;;3.52;65.12;102213.41;5071450;28;20433;-79
2022/03/09 01:56:39;;;;;;;10.02;7.68;;;;;;;3.50;65.10;102203.91;5073833;28;20056;-79
2022/03/09 01:59:07;;;;;;;9.45;7.88;;;;;;;3.49;65.20;102196.97;5072467;28;20052;-79
2022/03/09 02:01:33;;;;;;;10.50;8.02;;;;;;;3.42;64.40;102196.91;5066235;28;20064;-78
2022/03/09 02:04:00;;;;;;;11.63;8.00;;;;;;;3.44;65.33;102202.13;5065036;28;20323;-79
2022/03/09 02:06:25;;;;;;;9.93;7.80;;;;;;;3.45;65.63;102201.25;5034661;28;20028;-79
2022/03/09 02:11:37;;;;;;;9.98;7.50;;;;;;;3.41;65.27;102202.94;5057398;28;20102;-78
2022/03/09 02:14:03;;;;;;;10.70;7.78;;;;;;;3.41;65.92;102194.31;5024192;28;20031;-78
2022/03/09 02:16:28;;;;;;;11.90;7.88;;;;;;;3.42;65.89;102198.63;5049207;28;20044;-79
2022/03/09 02:18:54;;;;;;;8.20;7.22;;;;;;;3.42;66.26;102196.91;5060512;28;20100;-79
2022/03/09 02:21:22;;;;;;;8.23;7.20;;;;;;;3.42;66.65;102202.09;5045937;28;20340;-79
2022/03/09 02:23:48;;;;;;;8.52;7.63;;;;;;;3.42;65.85;102203.81;5059654;28;20084;-79
2022/03/09 02:26:13;;;;;;;12.98;7.15;;;;;;;3.42;66.08;102203.81;5027042;28;20063;-78
2022/03/09 02:28:44;;;;;;;11.45;7.93;;;;;;;3.41;66.23;102205.53;5024492;28;20253;-79
2022/03/09 02:31:09;;;;;;;8.35;7.00;;;;;;;3.40;65.43;102198.63;5065732;28;20374;-79
2022/03/09 02:33:35;;;;;;;11.02;7.38;;;;;;;3.39;65.79;102201.19;5024760;28;20029;-79
2022/03/09 02:36:00;;;;;;;9.98;7.63;;;;;;;3.39;66.21;102212.41;5042041;28;20103;-79
2022/03/09 02:38:26;;;;;;;12.40;7.60;;;;;;;3.38;66.37;102208.06;5064738;28;20048;-79
2022/03/09 02:40:51;;;;;;;9.55;7.85;;;;;;;3.38;66.56;102207.22;5012260;28;20033;-79
2022/03/09 02:43:17;;;;;;;11.30;8.15;;;;;;;3.39;66.19;102208.97;5045085;28;20036;-79
2022/03/09 02:45:42;;;;;;;9.88;6.97;;;;;;;3.38;66.38;102202.03;5057458;28;20044;-79
2022/03/09 02:48:07;;;;;;;10.45;7.57;;;;;;;3.37;66.55;102201.19;5069236;28;20261;-79
2022/03/09 02:50:33;;;;;;;9.43;7.40;;;;;;;3.37;66.35;102202.91;5072060;28;20040;-79
2022/03/09 02:52:58;;;;;;;11.02;8.32;;;;;;;3.37;66.80;102197.72;5055381;28;20040;-79
2022/03/09 02:55:23;;;;;;;9.07;7.65;;;;;;;3.36;67.00;102196.84;5074080;28;20048;-79
2022/03/09 02:57:49;;;;;;;11.32;7.68;;;;;;;3.34;66.79;102184.72;5074146;28;20229;-79
2022/03/09 03:00:14;;;;;;;10.23;7.57;;;;;;;3.34;66.94;102184.72;5060279;28;20035;-79
2022/03/09 03:02:40;;;;;;;11.43;7.30;;;;;;;3.34;66.93;102189.91;5046179;28;20237;-79
2022/03/09 03:05:07;;;;;;;7.72;6.90;;;;;;;3.35;67.03;102189.06;5057996;28;20036;-79
2022/03/09 03:07:33;;;;;;;10.70;8.02;;;;;;;3.32;66.54;102186.44;5044879;28;20064;-79
2022/03/09 03:09:58;;;;;;;8.35;7.32;;;;;;;3.32;66.71;102189.03;5045035;28;20032;-79
2022/03/09 03:12:24;;;;;;;9.85;7.32;;;;;;;3.31;66.60;102185.59;5063219;28;20287;-78
2022/03/09 03:14:49;;;;;;;9.32;7.60;;;;;;;3.31;66.72;102184.69;5041982;28;20029;-79
2022/03/09 03:17:15;;;;;;;9.80;7.45;;;;;;;3.31;66.97;102180.41;5042309;28;20033;-79
2022/03/09 03:19:40;;;;;;;9.25;7.80;;;;;;;3.30;67.15;102182.97;5043688;28;20048;-79
2022/03/09 03:22:06;;;;;;;14.07;8.13;;;;;;;3.30;67.43;102188.16;5044815;28;20115;-79
2022/03/09 03:24:31;;;;;;;11.70;7.68;;;;;;;3.29;67.21;102183.81;5040324;28;20329;-78
2022/03/09 03:26:57;;;;;;;8.18;6.63;;;;;;;3.29;67.05;102183.81;5063325;28;20051;-78
2022/03/09 03:29:22;;;;;;;9.65;7.55;;;;;;;3.28;67.23;102187.28;5065709;28;20052;-79
2022/03/09 03:31:47;;;;;;;7.65;6.63;;;;;;;3.26;66.35;102192.44;5034296;28;20037;-78
2022/03/09 03:34:13;;;;;;;9.55;7.20;;;;;;;3.25;66.75;102185.50;5058351;28;20376;-78
2022/03/09 03:36:38;;;;;;;9.77;6.78;;;;;;;3.24;66.92;102173.41;5058612;28;20082;-79
2022/03/09 03:39:04;;;;;;;9.52;7.03;;;;;;;3.25;67.48;102185.50;5050336;28;20411;-79
2022/03/09 03:41:29;;;;;;;9.40;7.50;;;;;;;3.23;67.77;102182.88;5060431;28;20108;-79
2022/03/09 03:43:55;;;;;;;7.90;6.70;;;;;;;3.23;67.47;102188.06;5063138;28;20047;-79
2022/03/09 03:46:20;;;;;;;11.90;8.15;;;;;;;3.22;67.32;102194.13;5041094;28;20047;-79
2022/03/09 03:48:45;;;;;;;10.30;7.32;;;;;;;3.21;67.31;102181.16;5059388;28;20240;-79
2022/03/09 03:51:11;;;;;;;11.68;8.30;;;;;;;3.21;67.62;102191.50;5040089;28;20221;-78
2022/03/09 03:53:36;;;;;;;10.55;6.72;;;;;;;3.22;67.66;102186.34;5071781;28;20357;-78
2022/03/09 03:56:02;;;;;;;9.30;7.60;;;;;;;3.21;68.06;102189.78;5071943;28;20037;-78
2022/03/09 03:58:27;;;;;;;9.98;7.65;;;;;;;3.19;67.92;102183.72;5067877;28;20055;-79
2022/03/09 04:00:52;;;;;;;10.50;7.57;;;;;;;3.20;68.04;102193.22;5039918;28;20045;-79
2022/03/09 04:03:18;;;;;;;12.38;8.18;;;;;;;3.19;67.85;102182.84;5040676;28;20033;-79
2022/03/09 04:05:43;;;;;;;9.05;7.07;;;;;;;3.18;67.74;102189.72;5048788;28;20039;-79
2022/03/09 04:08:09;;;;;;;7.65;6.38;;;;;;;3.16;67.13;102190.56;5049583;28;20353;-79
2022/03/09 04:10:34;;;;;;;9.77;7.15;;;;;;;3.16;67.29;102187.97;5040070;28;20040;-79
2022/03/09 04:13:03;;;;;;;10.70;7.88;;;;;;;3.15;67.80;102189.72;5040164;28;20052;-79
2022/03/09 04:15:30;;;;;;;13.50;7.75;;;;;;;3.15;67.81;102183.69;5057666;28;20225;-79
2022/03/09 04:17:55;;;;;;;10.32;7.80;;;;;;;3.15;67.99;102184.53;5034947;28;20530;-79
2022/03/09 04:20:20;;;;;;;7.97;6.65;;;;;;;3.14;68.17;102182.78;5008010;28;20040;-79
2022/03/09 04:22:46;;;;;;;6.90;6.20;;;;;;;3.14;68.29;102179.34;5053313;28;20270;-79
2022/03/09 04:25:11;;;;;;;10.82;7.25;;;;;;;3.14;68.31;102166.38;5049488;28;20256;-79
2022/03/09 04:27:37;;;;;;;7.40;6.13;;;;;;;3.14;68.31;102176.75;5062974;28;20288;-79
2022/03/09 04:30:04;;;;;;;7.28;6.47;;;;;;;3.13;68.18;102175.00;5040214;28;20033;-79
2022/03/09 04:32:31;;;;;;;7.93;7.00;;;;;;;3.13;68.32;102182.75;5059202;28;20264;-79
2022/03/09 04:34:56;;;;;;;8.35;7.15;;;;;;;3.12;68.41;102184.50;5073893;28;20028;-79
2022/03/09 04:37:22;;;;;;;8.50;7.20;;;;;;;3.10;67.98;102181.03;5038584;28;20236;-79
2022/03/09 04:39:48;;;;;;;11.38;8.23;;;;;;;3.09;68.07;102179.25;5039013;28;20047;-79
2022/03/09 04:42:14;;;;;;;10.40;7.70;;;;;;;3.07;68.42;102181.88;5027279;28;20074;-79
2022/03/09 04:44:39;;;;;;;9.88;7.20;;;;;;;3.06;68.53;102172.34;5056542;28;20044;-79
2022/03/09 04:47:05;;;;;;;10.18;7.60;;;;;;;3.06;68.50;102177.53;5061684;28;20064;-79
2022/03/09 04:49:30;;;;;;;8.18;7.38;;;;;;;3.04;68.19;102181.81;5057786;28;20359;-79
2022/03/09 04:51:55;;;;;;;10.20;7.35;;;;;;;3.04;68.57;102180.97;5051094;28;20053;-79
2022/03/09 04:54:21;;;;;;;8.48;6.90;;;;;;;3.03;68.50;102182.66;5054773;28;20044;-79
2022/03/09 04:56:46;;;;;;;9.65;7.32;;;;;;;3.03;68.62;102186.97;5058545;28;20217;-79
2022/03/09 04:59:13;;;;;;;10.45;7.90;;;;;;;3.01;68.64;102192.13;5025973;28;20077;-79
2022/03/09 05:01:38;;;;;;;11.05;7.82;;;;;;;3.02;68.65;102198.16;5053638;28;20032;-79
2022/03/09 05:04:04;;;;;;;9.82;6.75;;;;;;;3.00;68.45;102189.50;5045974;28;20390;-79
2022/03/09 05:06:29;;;;;;;7.60;6.75;;;;;;;2.98;68.23;102197.25;5022336;28;20028;-78
2022/03/09 05:08:54;;;;;;;10.57;7.55;;;;;;;2.98;68.19;102199.84;5056690;28;20052;-78
2022/03/09 05:11:20;;;;;;;10.23;7.57;;;;;;;2.97;68.34;102202.44;5038634;28;20232;-78
2022/03/09 05:13:45;;;;;;;10.07;7.60;;;;;;;2.95;68.27;102194.66;5046877;28;20285;-79
2022/03/09 05:16:11;;;;;;;9.02;6.90;;;;;;;2.95;68.31;102196.34;5054785;28;20233;-79
2022/03/09 05:18:37;;;;;;;9.13;7.15;;;;;;;2.94;68.04;102195.47;5043399;28;20332;-79
2022/03/09 05:21:04;;;;;;;7.30;6.38;;;;;;;2.93;67.82;102204.13;5060351;28;20108;-79
2022/03/09 05:23:29;;;;;;;9.13;6.97;;;;;;;2.91;67.75;102208.41;5044601;28;20054;-79
2022/03/09 05:25:55;;;;;;;8.18;7.25;;;;;;;2.89;67.82;102197.13;5057265;28;20201;-78
2022/03/09 05:28:20;;;;;;;9.13;7.30;;;;;;;2.88;67.67;102203.19;5055066;28;20098;-78
2022/03/09 05:30:46;;;;;;;9.82;7.22;;;;;;;2.87;67.93;102193.66;5044143;28;20107;-78
2022/03/09 05:33:11;;;;;;;12.25;7.57;;;;;;;2.86;67.97;102197.97;5060209;28;20336;-78
2022/03/09 05:35:38;;;;;;;9.13;7.07;;;;;;;2.84;67.74;102191.06;5080300;28;20028;-78
2022/03/09 05:38:04;;;;;;;10.90;7.28;;;;;;;2.84;67.66;102198.81;5065784;28;20076;-79
2022/03/09 05:40:29;;;;;;;7.90;6.78;;;;;;;2.82;67.44;102201.38;5043884;28;20074;-79
2022/03/09 05:42:54;;;;;;;7.88;6.50;;;;;;;2.81;67.42;102214.28;5043294;28;20041;-78
2022/03/09 05:45:20;;;;;;;8.80;6.82;;;;;;;2.80;67.43;102217.72;5041388;28;20065;-78
2022/03/09 05:47:45;;;;;;;9.20;6.93;;;;;;;2.79;67.53;102214.28;5053041;28;20377;-78
2022/03/09 05:50:10;;;;;;;8.73;6.80;;;;;;;2.78;67.46;102216.84;5043240;28;20044;-78
2022/03/09 05:52:36;;;;;;;9.70;6.47;;;;;;;2.77;67.44;102217.69;5066688;28;20220;-78
2022/03/09 05:55:02;;;;;;;8.57;6.82;;;;;;;2.76;67.67;102221.97;5035663;28;20351;-78
2022/03/09 05:57:27;;;;;;;8.52;6.95;;;;;;;2.75;67.78;102215.09;5052387;28;20057;-78
2022/03/09 05:59:52;;;;;;;10.73;6.93;;;;;;;2.74;67.67;102223.69;5039285;28;20037;-78
2022/03/09 06:02:18;;;;;;;10.00;6.75;;;;;;;2.74;67.77;102226.28;5058485;28;20045;-78
2022/03/09 06:04:45;;;;;;;9.02;6.38;;;;;;;2.73;67.88;102221.97;5058682;28;20045;-78
2022/03/09 06:07:10;;;;;;;10.10;7.20;;;;;;;2.72;67.84;102225.38;5034070;28;20048;-79
2022/03/09 06:09:36;;;;;;;8.50;6.45;;;;;;;2.73;68.00;102219.38;5043894;28;20043;-79
2022/03/09 06:12:01;;;;;;;10.43;6.25;;;;;;;2.73;68.10;102227.13;5058386;28;20040;-78
2022/03/09 06:14:27;;;;;;;7.53;6.18;;;;;;;2.72;67.61;102220.22;5046857;28;20356;-78
2022/03/09 06:16:52;;;;;;;9.05;6.75;;;;;;;2.71;67.54;102210.72;5023702;28;20083;-79
2022/03/09 06:19:18;;;;;;;8.30;6.70;;;;;;;2.71;67.31;102225.34;5029549;28;20048;-79
2022/03/09 06:21:44;;;;;;;6.90;5.95;;;;;;;2.69;67.09;102225.31;5052644;28;20081;-79
2022/03/09 06:24:10;;;;;;;10.30;7.25;;;;;;;2.66;67.04;102221.00;5043018;28;20244;-79
2022/03/09 06:26:38;;;;;;;9.45;6.63;;;;;;;2.66;67.23;102231.34;5040394;28;20324;-79
2022/03/09 06:29:05;;;;;;;6.55;5.85;;;;;;;2.64;67.19;102233.03;5041683;28;20036;-79
2022/03/09 06:31:30;;;;;;;7.93;6.78;;;;;;;2.65;67.02;102233.91;5040006;28;20047;-79
2022/03/09 06:33:56;;;;;;;7.30;6.43;;;;;;;2.62;67.15;102220.91;5006905;28;20380;-79
2022/03/09 06:36:21;;;;;;;9.70;6.55;;;;;;;2.62;66.95;102232.16;5041129;28;20044;-79
2022/03/09 06:38:47;;;;;;;7.65;6.20;;;;;;;2.61;66.90;102234.72;5040624;28;20444;-79
2022/03/09 06:41:12;;;;;;;10.18;6.75;;;;;;;2.60;66.93;102240.72;5059090;28;20120;-79
2022/03/09 06:43:38;;;;;;;7.22;6.15;;;;;;;2.59;66.61;102228.66;5065610;28;20134;-79
2022/03/09 06:46:04;;;;;;;8.68;6.68;;;;;;;2.58;66.76;102235.53;5060092;28;20037;-78
2022/03/09 06:48:29;;;;;;;7.53;5.90;;;;;;;2.57;66.98;102235.53;5042628;28;20112;-78
2022/03/09 06:50:54;;;;;;;9.02;6.93;;;;;;;2.57;67.33;102244.16;5058035;28;20056;-78
2022/03/09 06:53:20;;;;;;;8.02;6.25;;;;;;;2.58;67.40;102242.41;5037706;28;20079;-79
2022/03/09 06:55:45;;;;;;;9.73;7.10;;;;;;;2.58;67.61;102242.41;5039682;28;20048;-79
2022/03/09 06:58:11;;;;;;;8.98;6.57;;;;;;;2.57;67.65;102236.38;5038905;28;20061;-79
2022/03/09 07:00:36;;;;;;;8.63;6.93;;;;;;;2.59;67.89;102231.25;5038298;28;20052;-79
2022/03/09 07:03:05;;;;;;;7.90;6.40;;;;;;;2.59;67.86;102239.84;5038166;28;20240;-79
2022/03/09 07:05:30;;;;;;;6.93;6.22;;;;;;;2.60;67.92;102241.63;5039562;28;20036;-79
2022/03/09 07:07:56;;;;;;;7.38;6.03;;;;;;;2.61;68.07;102240.75;5038531;28;20099;-79
2022/03/09 07:10:21;;;;;;;8.05;5.85;;;;;;;2.63;68.14;102248.53;5027091;28;20231;-79
2022/03/09 07:12:47;;;;;;;6.63;5.90;;;;;;;2.63;68.04;102245.94;5039226;28;20044;-79
2022/03/09 07:15:13;;;;;;;8.43;5.90;;;;;;;2.63;68.32;102246.81;5023291;28;20297;-79
2022/03/09 07:17:39;;;;;;;8.57;6.18;;;;;;;2.66;68.44;102251.19;5038374;28;20033;-79
2022/03/09 07:20:06;;;;;;;6.65;5.90;;;;;;;2.66;68.44;102253.75;5056196;28;20064;-79
2022/03/09 07:22:32;;;;;;;6.55;5.55;;;;;;;2.66;68.20;102251.19;5032153;28;20060;-79
2022/03/09 07:24:57;;;;;;;6.88;5.63;;;;;;;2.67;68.45;102258.97;5054184;28;20028;-79
2022/03/09 07:27:23;;;;;;;10.70;7.75;;;;;;;2.69;68.78;102258.97;5037555;28;20079;-79
2022/03/09 07:29:48;;;;;;;11.13;6.78;;;;;;;2.70;68.83;102265.88;5045477;28;20328;-79
2022/03/09 07:32:14;;;;;;;9.30;7.35;;;;;;;2.68;68.63;102265.84;5056973;28;20075;-79
2022/03/09 07:34:43;;;;;;;11.07;7.28;;;;;;;2.70;68.96;102265.88;5038068;28;20408;-79
2022/03/09 07:37:08;;;;;;;9.20;7.22;;;;;;;2.71;69.07;102262.47;5023048;28;20037;-79
2022/03/09 07:39:35;;;;;;;10.40;7.10;;;;;;;2.72;69.21;102266.78;5055418;28;20040;-79
2022/03/09 07:42:01;;;;;;;10.85;7.85;;;;;;;2.74;69.34;102269.38;5059204;28;20025;-78
2022/03/09 07:44:26;;;;;;;10.25;7.85;;;;;;;2.76;69.64;102270.28;5050101;28;20244;-78
2022/03/09 07:46:52;;;;;;;8.93;7.40;;;;;;;2.77;69.64;102272.88;5043962;28;20028;-78
2022/03/09 07:49:19;;;;;;;9.65;7.20;;;;;;;2.80;69.90;102278.13;5056487;28;20049;-79
2022/03/09 07:51:45;;;;;;;9.90;7.13;;;;;;;2.82;70.02;102279.00;5020320;28;20040;-79
2022/03/09 07:54:11;;;;;;;10.38;7.13;;;;;;;2.84;70.40;102269.53;5058500;28;20038;-79
2022/03/09 07:56:37;;;;;;;14.45;8.20;;;;;;;2.83;70.06;102275.56;5056799;28;20035;-79
2022/03/09 07:59:03;;;;;;;11.77;8.45;;;;;;;2.85;70.10;102278.16;5041331;28;20072;-79
2022/03/09 08:01:29;;;;;;;11.52;8.30;;;;;;;2.87;70.32;102274.78;5037432;28;20067;-79
2022/03/09 08:03:54;;;;;;;9.93;7.80;;;;;;;2.91;70.80;102274.78;5018112;28;20064;-78
2022/03/09 08:06:20;;;;;;;8.75;7.78;;;;;;;2.92;70.58;102271.38;5042989;28;20040;-78
2022/03/09 08:08:46;;;;;;;14.35;9.73;;;;;;;2.93;70.65;102267.91;5052058;28;20271;-78
2022/03/09 08:11:12;;;;;;;9.93;8.30;;;;;;;2.95;70.91;102273.97;5054528;28;20274;-78
2022/03/09 08:13:37;;;;;;;11.60;8.65;;;;;;;2.96;71.08;102271.41;5030032;28;20055;-78
2022/03/09 08:16:03;;;;;;;10.23;8.40;;;;;;;2.99;71.02;102275.78;5032160;28;20044;-78
2022/03/09 08:18:28;;;;;;;15.05;9.65;;;;;;;2.98;71.16;102274.91;5052523;28;20048;-78
2022/03/09 08:20:53;;;;;;;11.95;9.05;;;;;;;3.01;71.09;102276.69;5052156;28;20286;-78
2022/03/09 08:23:20;;;;;;;13.57;9.65;;;;;;;3.01;70.95;102277.53;5034414;28;20386;-78
2022/03/09 08:25:45;;;;;;;11.20;9.10;;;;;;;3.02;71.31;102273.22;5036785;28;20040;-78
2022/03/09 08:28:10;;;;;;;13.45;9.82;;;;;;;3.04;71.42;102277.59;5036506;28;20085;-78
2022/03/09 08:30:38;;;;;;;12.55;9.27;;;;;;;3.07;70.26;102279.34;5037956;28;20050;-78
2022/03/09 08:33:03;;;;;;;11.43;8.52;;;;;;;3.10;70.70;102281.13;5033270;28;20036;-78
2022/03/09 08:35:29;;;;;;;18.90;11.13;;;;;;;3.11;70.61;102275.97;5048161;28;20056;-78
2022/03/09 08:37:54;;;;;;;16.25;9.70;;;;;;;3.13;70.55;102281.13;5030500;28;20033;-78
2022/03/09 08:40:19;;;;;;;13.27;9.23;;;;;;;3.17;70.50;102286.38;5034066;28;20049;-78
2022/03/09 08:42:45;;;;;;;13.73;10.13;;;;;;;3.18;70.03;102282.94;5019738;28;20869;-78
2022/03/09 08:45:11;;;;;;;15.50;10.68;;;;;;;3.19;70.03;102279.50;5017409;28;20360;-78
2022/03/09 08:47:39;;;;;;;11.65;8.57;;;;;;;3.24;69.86;102284.75;5034730;28;20334;-78
2022/03/09 08:50:05;;;;;;;13.05;9.15;;;;;;;3.26;69.99;102281.31;5052049;28;20040;-78
2022/03/09 08:52:30;;;;;;;17.92;11.93;;;;;;;3.29;70.07;102279.63;5046407;28;20387;-78
2022/03/09 08:54:56;;;;;;;12.52;9.30;;;;;;;3.32;69.96;102272.75;5029635;28;20033;-78
2022/03/09 08:57:21;;;;;;;13.32;9.82;;;;;;;3.36;69.92;102269.34;5035705;28;20025;-78
2022/03/09 08:59:47;;;;;;;13.68;9.98;;;;;;;3.38;68.84;102266.78;5045316;28;20109;-78
2022/03/09 09:02:12;;;;;;;13.50;9.35;;;;;;;3.41;68.58;102274.59;5023893;28;20343;-78
2022/03/09 09:04:38;;;;;;;20.35;11.63;;;;;;;3.43;67.42;102273.75;5029570;28;20040;-78
2022/03/09 09:07:04;;;;;;;17.10;10.82;;;;;;;3.46;66.99;102275.53;5033718;28;20387;-78
2022/03/09 09:09:29;;;;;;;17.77;11.35;;;;;;;3.51;67.34;102279.03;5037413;28;20032;-78
2022/03/09 09:11:55;;;;;;;14.80;10.02;;;;;;;3.53;67.28;102285.13;5059621;28;20037;-79
2022/03/09 09:14:21;;;;;;;15.02;10.20;;;;;;;3.58;66.64;102282.56;5019868;28;20257;-78
2022/03/09 09:16:47;;;;;;;20.73;10.75;;;;;;;3.61;66.45;102280.00;5056792;28;20033;-78
2022/03/09 09:19:12;;;;;;;19.00;12.25;;;;;;;3.67;66.20;102284.38;5039085;28;20291;-78
2022/03/09 09:21:38;;;;;;;21.80;11.13;;;;;;;3.71;64.96;102292.22;5055763;28;20037;-78
2022/03/09 09:24:04;;;;;;;20.88;11.20;;;;;;;3.76;64.36;102290.53;5025323;28;20315;-78
2022/03/09 09:26:29;;;;;;;25.75;11.77;;;;;;;3.81;64.61;102290.59;5034406;28;20275;-78
2022/03/09 09:28:55;;;;;;;19.13;10.82;;;;;;;3.87;64.30;102289.78;5054279;28;20028;-78
2022/03/09 09:31:21;;;;;;;17.88;11.35;;;;;;;3.92;63.85;102291.56;5052830;28;20329;-78
2022/03/09 09:33:46;;;;;;;19.05;11.07;;;;;;;3.99;64.03;102283.00;5055084;28;20060;-78
2022/03/09 09:36:11;;;;;;;23.88;12.23;;;;;;;4.06;63.37;102280.44;5041763;28;20048;-78
2022/03/09 09:38:37;;;;;;;20.92;11.65;;;;;;;4.12;63.44;102276.19;5046010;28;20114;-78
2022/03/09 09:41:03;;;;;;;20.23;12.02;;;;;;;4.20;61.05;102277.16;5052772;28;20033;-78
2022/03/09 09:43:29;;;;;;;27.38;12.75;;;;;;;4.30;62.07;102270.31;5037008;28;20051;-78
2022/03/09 09:45:56;;;;;;;21.02;12.43;;;;;;;4.39;62.39;102272.13;5041859;28;20025;-78
2022/03/09 09:48:22;;;;;;;21.55;13.05;;;;;;;4.46;61.86;102275.59;5051411;28;20042;-78
2022/03/09 09:50:48;;;;;;;20.42;12.55;;;;;;;4.54;61.88;102276.53;5053270;28;20029;-78
2022/03/09 09:53:14;;;;;;;20.55;11.57;;;;;;;4.61;60.39;102281.78;5063908;28;20033;-78
2022/03/09 09:55:41;;;;;;;18.58;11.82;;;;;;;4.69;61.11;102284.44;5041074;28;20037;-78
2022/03/09 09:58:08;;;;;;;26.13;13.25;;;;;;;4.76;61.02;102281.00;5045888;28;20900;-78
2022/03/09 10:00:34;;;;;;;23.38;13.10;;;;;;;4.85;60.84;102280.22;5039474;28;20040;-78
2022/03/09 10:03:00;;;;;;;23.05;13.30;;;;;;;4.92;60.88;102278.53;5052652;28;20237;-78
2022/03/09 10:05:25;;;;;;;24.55;13.18;;;;;;;4.97;60.90;102269.91;5049108;28;20061;-78
2022/03/09 10:08:03;;;;;;;29.63;14.10;;;;;;;5.02;60.67;102274.25;5026519;28;20052;-78
2022/03/09 10:10:29;;;;;;;32.95;14.40;;;;;;;5.07;60.41;102276.00;5058502;28;20349;-78
2022/03/09 10:13:28;;;;;;;23.05;12.50;;;;;;;5.15;60.07;102278.66;5035870;28;20067;-78
2022/03/09 10:16:07;;;;;;;25.27;12.80;;;;;;;5.29;59.68;102278.72;5042715;28;20063;-78
2022/03/09 10:18:32;;;;;;;;;;;;;;;5.36;60.48;102281.31;5051232;28;20412;-78
2022/03/09 10:21:08;;;;;;;25.30;13.20;;;;;;;5.48;60.41;102290.06;5048909;28;19951;-78
2022/03/09 10:23:50;;;;;;;24.73;13.02;;;;;;;5.56;60.37;102290.94;5033860;28;20059;-78
2022/03/09 10:26:15;;;;;;;26.25;13.20;;;;;;;5.65;59.66;102290.09;5045644;28;20399;-78
2022/03/09 10:28:53;;;;;;;25.67;13.63;;;;;;;5.74;59.10;102285.78;5040808;28;20021;-78
2022/03/09 10:31:37;;;;;;;26.02;14.18;;;;;;;5.88;59.40;102284.97;5044867;28;20039;-78
2022/03/09 10:34:07;;;;;;;27.40;13.35;;;;;;;5.97;58.66;102279.81;5053301;28;20029;-78
2022/03/09 10:36:32;;;;;;;26.88;14.07;;;;;;;6.08;58.97;102282.44;5029710;28;20091;-78
2022/03/09 10:39:14;;;;;;;25.83;14.75;;;;;;;6.19;58.83;102283.31;5048298;28;20272;-78
2022/03/09 10:41:40;;;;;;;26.10;13.40;;;;;;;6.30;57.61;102278.97;5047376;28;20072;-78
2022/03/09 10:44:06;;;;;;;27.25;13.98;;;;;;;6.39;57.54;102282.44;5028667;28;20029;-78
2022/03/09 10:46:50;;;;;;;27.63;14.00;;;;;;;6.43;58.11;102292.84;5036644;28;20112;-78
2022/03/09 10:49:19;;;;;;;26.48;13.80;;;;;;;6.48;58.23;102287.66;5030041;28;20034;-78
2022/03/09 10:51:47;;;;;;;27.17;13.98;;;;;;;6.56;57.34;102298.06;5047720;28;20333;-78
2022/03/09 10:54:25;;;;;;;28.75;14.30;;;;;;;6.66;56.92;102298.03;5050700;28;20340;-78
2022/03/09 10:57:04;;;;;;;33.95;15.98;;;;;;;6.76;57.70;102290.22;5059727;28;20041;-78
2022/03/09 10:59:41;;;;;;;37.85;14.95;;;;;;;6.84;57.49;102285.84;5034656;28;20064;-78
2022/03/09 11:02:09;;;;;;;26.50;14.98;;;;;;;6.93;57.99;102288.47;5050856;28;20033;-78
2022/03/09 11:04:35;;;;;;;29.48;14.68;;;;;;;7.01;58.13;102286.69;5038460;28;20035;-78
2022/03/09 11:07:01;;;;;;;31.58;15.55;;;;;;;7.07;57.07;102288.41;5064108;28;20228;-78
2022/03/09 11:09:26;;;;;;;26.73;14.63;;;;;;;7.14;55.71;102281.44;5048182;28;20064;-78
2022/03/09 11:11:52;;;;;;;30.38;15.63;;;;;;;7.20;56.38;102271.84;5065801;28;20029;-78
2022/03/09 11:14:20;;;;;;;29.23;15.00;;;;;;;7.26;56.28;102274.47;5063560;28;20025;-78
2022/03/09 11:16:47;;;;;;;37.40;16.25;;;;;;;7.33;56.58;102271.81;5064180;28;20041;-78
2022/03/09 11:19:14;;;;;;;32.58;16.23;;;;;;;7.39;56.91;102271.81;5060196;28;20083;-78
2022/03/09 11:21:41;;;;;;;34.92;17.50;;;;;;;7.46;57.23;102270.91;5061841;28;20255;-78
2022/03/09 11:24:08;;;;;;;29.83;16.05;;;;;;;7.53;56.81;102270.00;5033572;28;20035;-78